• Join FlightAware (Why Join?)
  • Login
  • US Flag 
06:50AM EDT


 

Airport Tracker/Info


-or-


 

Live Flight TrackerFlight Track Log ✈ N40838 ✈ 07-Jul-2013 ✈ 15FL - KVQQ

Flight Track Log - Related Links

Times and Time Zones

All times are in EDT time to prevent confusion due to time zone crossing. See the N40838 flight status page for this flight to view local times or setup timezone preferences in your user account.

Time Position Orientation Groundspeed Altitude Reporting Facility
EDT Latitude Longitude Course Direction KTS MPH feet Rate Location/Type
12:13PM 30.1556 -82.6211 85° East 100 115 1,600  Level Jacksonville Center
12:14PM 30.1597 -82.5994 77° East 88 101 2,100 480 Climbing Jacksonville Center
12:15PM 30.1617 -82.5778 84° East 75 86 2,600 420 Climbing Jacksonville Center
12:16PM 30.1639 -82.5561 83° East 70 81 3,000 180 Climbing Jacksonville Center
12:17PM 30.1678 -82.5275 81° East 64 74 3,000 -60 Level Jacksonville Center
12:18PM 30.1604 -82.5724 85° East  Level FlightAware Approximate
12:18PM 30.1719 -82.4986 81° East 75 86 2,900  Level Jacksonville Center
12:19PM 30.1719 -82.4719 90° East 80 92 2,900  Level Jacksonville Center
12:20PM 30.1717 -82.4481 91° East 80 92 3,000 60 Climbing Jacksonville Center
12:21PM 30.1758 -82.4192 81° East 85 98 3,100  Climbing Jacksonville Center
12:22PM 30.1819 -82.3903 76° East 85 98 3,000 -60 Descending Jacksonville Center
12:23PM 30.1881 -82.3664 74° East 89 102 3,000  Level Jacksonville Center
12:24PM 30.1986 -82.3375 67° East 85 98 3,100  Climbing Jacksonville Center
12:25PM 30.2006 -82.3086 86° East 85 98 3,000 -120 Descending Jacksonville Center
12:26PM 30.1878 -82.2822 119° Southeast 85 98 2,900 -120 Descending Jacksonville Center
12:27PM 30.1753 -82.2631 127° Southeast 85 98 2,800 -120 Descending Jacksonville Center
12:27PM 30.1753 -82.2631 127° Southeast 78 90 2,800 180 Level Jacksonville Center
12:28PM 30.1667 -82.2392 113° Southeast 82 94 3,000  Climbing Jacksonville Center
12:29PM 30.1583 -82.2150 112° Southeast 83 96 2,900 -60 Descending Jacksonville Center
12:30PM 30.1539 -82.1864 100° East 80 92 2,900  Level Jacksonville Center
12:31PM 30.1414 -82.1672 127° Southeast 78 90 2,900  Level Jacksonville Center
12:32PM 30.1328 -82.1433 113° Southeast 83 96 3,000 -60 Climbing Jacksonville Center
12:33PM 30.1242 -82.1072 105° East 88 101 2,800 -300 Descending Jacksonville Center
12:34PM 30.1136 -82.0786 113° Southeast 97 112 2,300 -420 Descending Jacksonville Center
12:35PM 30.1031 -82.0547 117° Southeast 84 97 2,000 -180 Descending Jacksonville Center
12:36PM 30.0986 -82.0331 103° East 85 98 2,000  Level Jacksonville Center
12:37PM 30.0900 -82.0044 109° East 86 99 2,000 -60 Level Jacksonville Center
12:38PM 30.0794 -81.9828 119° Southeast 81 93 1,900 -60 Descending Jacksonville Center
12:39PM 30.0689 -81.9542 113° Southeast 81 93 1,900  Level Jacksonville Center
12:40PM 30.0647 -81.9372 106° East 76 87 1,900  Level Jacksonville Center
12:41PM 30.0581 -81.9133 108° East 72 83 2,000  Climbing Jacksonville Center
12:42PM 30.0558 -81.8822 95° East 89 102 2,000 -180 Level Jacksonville Center
12:43PM 30.0808 -81.8797 North 102 117 1,700 -120 Descending Jacksonville Center
12:44PM 30.1081 -81.8794 North 76 87 1,800 -240 Climbing Jacksonville Center
12:45PM 30.1350 -81.8767 North 121 139 1,300 -540 Descending Jacksonville Center
12:46PM 30.1622 -81.8739 North 101 116 800 -420 Descending Jacksonville Center
12:47PM 30.1853 -81.8761 355° North 103 119 500 -360 Descending Jacksonville Center
12:49PM 30.2167 -81.8667 41° Northeast  Level FlightAware Approximate
12:56PM 30.2188 -81.8772 41° Northeast  Level Estimated